METAR Reports From Nearby Airports

 

KLUD - Decatur, Texas, USA
Distance from Wildwood: ESE 5mi, 8km
Updated: Jan 19, 2020 7:15pm
Clear
Clear
 Wind from calm
Wind: Calm
Temperature: 46°F , 8°C
Dew Point: 21°F , -6°C
Humidity: 37%
Barometer: 30.51 inHg , 1033.2 hPa
Clouds: Clear
Visibility: 10 miles , 16 km
2020/01/20 01:15 KLUD 200115Z AUTO 00000KT 10SM CLR 08/M06 A3051 RMK AO2 T00771064
KXBP - Bridgeport, Texas, USA
Distance from Wildwood: WSW 11mi, 18km
Updated: Jan 19, 2020 7:15pm
Clear
Clear
 Wind from ENE
Wind: ENE 5 mph , 7 km/h
Temperature: 45°F , 7°C
Wind Chill: 42°F , 6°C
Dew Point: 25°F , -4°C
Humidity: 46%
Barometer: 30.53 inHg , 1033.9 hPa
Clouds: Clear
Visibility: 10 miles , 16 km
2020/01/20 01:15 KXBP 200115Z AUTO 06004KT 10SM CLR 07/M04 A3053 RMK AO2 T00731039
 
K0F2 - Bowie, Texas, USA
Distance from Wildwood: NNW 24mi, 39km
Updated: Jan 19, 2020 7:15pm
Clear
Clear
 Wind from calm
Wind: Calm
Temperature: 46°F , 8°C
Dew Point: 27°F , -3°C
Humidity: 46%
Barometer: 30.51 inHg , 1033.2 hPa
Clouds: Clear
Visibility: 10 miles , 16 km
2020/01/20 01:15 K0F2 200115Z AUTO 00000KT 10SM CLR 08/M03 A3051 RMK AO2 T00791034
KDTO - Denton, Texas, USA
Distance from Wildwood: E 27mi, 44km
Updated: Jan 19, 2020 6:53pm
Clear
Clear
 Wind from N
Wind: N 5 mph , 7 km/h
Temperature: 46°F , 8°C
Wind Chill: 44°F , 7°C
Dew Point: 27°F , -3°C
Humidity: 46%
Barometer: 30.51 inHg , 1033.2 hPa
Clouds: Clear
Visibility: 10 miles , 16 km
2020/01/20 00:53 KDTO 200053Z 01004KT 10SM CLR 08/M03 A3051 RMK AO2 SLP334 T00781033
 
KAFW - Ft Worth/Allianc, Texas, USA
Distance from Wildwood: SE 29mi, 46km
Updated: Jan 19, 2020 6:53pm
Mostly Cloudy
Mostly Cloudy
 Wind from calm
Wind: Calm
Temperature: 50°F , 10°C
Dew Point: 19°F , -7°C
Humidity: 30%
Barometer: 30.50 inHg , 1032.8 hPa
Clouds: Mostly Cloudy
Visibility: 10 miles , 16 km
Cloud details: Mostly Cloudy 21000 ft
2020/01/20 00:53 KAFW 200053Z 00000KT 10SM BKN210 10/M07 A3050 RMK AO2 SLP335 T01001067
KFTW - Fort Worth, Texas, USA
Distance from Wildwood: SSE 34mi, 55km
Updated: Jan 19, 2020 6:53pm
Clear
Clear
 Wind from calm
Wind: Calm
Temperature: 46°F , 8°C
Dew Point: 19°F , -7°C
Humidity: 34%
Barometer: 30.50 inHg , 1032.8 hPa
Clouds: Clear
Visibility: 10 miles , 16 km
2020/01/20 00:53 KFTW 200053Z 00000KT 10SM R16/6000VP6000FT CLR 08/M07 A3050 RMK AO2 SLP331 T00831067 $
 
KNFW - Fort Worth Nas, Texas, USA
Distance from Wildwood: SSE 36mi, 58km
Updated: Jan 19, 2020 6:52pm
Clear
Clear
 Wind from calm
Wind: Calm
Temperature: 54°F , 12°C
Dew Point: 30°F , -1°C
Humidity: 41%
Barometer: 30.51 inHg , 1033.2 hPa
Clouds: Clear
2020/01/20 00:52 KNFW 200052Z AUTO 00000KT CLR 12/M01 A3051 RMK AO2 SLP311 T01171011 VISNO N $
KGLE - Gainesville, Texas, USA
Distance from Wildwood: NE 38mi, 61km
Updated: Jan 19, 2020 7:15pm
Clear
Clear
 Wind from NNW
Wind: NNW 5 mph , 7 km/h
Temperature: 41°F , 5°C
Wind Chill: 38°F , 3°C
Dew Point: 23°F , -5°C
Humidity: 49%
Barometer: 30.53 inHg , 1033.9 hPa
Clouds: Clear
Visibility: 10 miles , 16 km
2020/01/20 01:15 KGLE 200115Z AUTO 33004KT 10SM CLR 05/M05 A3053 RMK AO2 T00521049
 
KMWL - Mineral Wells, Texas, USA
Distance from Wildwood: SW 41mi, 65km
Updated: Jan 19, 2020 6:53pm
Clear
Clear
 Wind from E
Wind: E 3 mph , 6 km/h
Temperature: 46°F , 8°C
Dew Point: 19°F , -7°C
Humidity: 34%
Barometer: 30.49 inHg , 1032.5 hPa
Clouds: Clear
Visibility: 10 miles , 16 km
2020/01/20 00:53 KMWL 200053Z AUTO 08003KT 10SM CLR 08/M07 A3049 RMK AO2 SLP326 T00831072
KDFW - Dallas/Ft Worth, Texas, USA
Distance from Wildwood: ESE 45mi, 73km
Updated: Jan 19, 2020 6:53pm
Mostly Cloudy
Mostly Cloudy
 Wind from N
Wind: N 3 mph , 6 km/h
Temperature: 50°F , 10°C
Dew Point: 21°F , -6°C
Humidity: 32%
Barometer: 30.48 inHg , 1032.2 hPa
Clouds: Mostly Cloudy
Visibility: 10 miles , 16 km
Cloud details: Few Clouds 16000 ft
Partly Cloudy 19000 ft
Mostly Cloudy 22000 ft
2020/01/20 00:53 KDFW 200053Z 35003KT 10SM FEW160 SCT190 BKN220 10/M06 A3048 RMK AO2 SLP324 T01001056 $